Etusivu
METAR-TAF:

METAR-TAF

Lentoasemat :

Tottori, Japani

Leveyspiiri: 35-32N, Pituuspiiri: 134-10E, korkeus merenpinnasta: 15 m

Tämänhetkinen sää

Tämä raportti tehtiin 20 minuuttia sitten, kello 22.00 UTC
Tuuli 9 kn lännestä/lounaasta
Lämpötila 11°C
Kosteus 62%
Ilmanpaine 1017 hPa
Näkyvyys 10 km tai enemmän
Muutamia pilviä 3000 ft:n korkeudessa
Hajanaisia pilviä 3500 ft:n korkeudessa
Hajonneita pilviä 5000 ft:n korkeudessa

METAR: RJOR 182200Z 24009KT 9999 FEW030 SCT035 BKN050 11/04 Q1017

Aika: 07:20 (22:20 UTC)


TAF: puuttuu

Säähavainnot ja -ennusteet yli 4000 lentoasemalta (METAR- ja TAF-raportit).

Käytössä olevat sääasemat on merkitty karttaan keltaisilla ja punaisilla pisteillä.

Aseta hiiri pisteen päälle nähdäksesi sääaseman nimen.

Klikkaa sitten nähdäksesi säähavainnot ja -ennusteet.

Kartan vaihtaminen: klikkaa mustalla rastilla varustettuja vihreitä pisteitä, niin voit zoomata sisään; viivalla varustettua vihreää pistettä, niin voit zoomata ulos tai vihreitä nuolia, niin pääset viereisille kartoille.


METAR-TAF: